createdAt,value
2022-11-12T00:00:56.027Z,2.63
2022-11-12T00:03:23.216Z,1.57
2022-11-12T00:05:50.955Z,1.77
2022-11-12T00:08:18.437Z,5.23
2022-11-12T00:10:45.849Z,7.60
2022-11-12T00:13:13.497Z,15.67
2022-11-12T00:15:40.997Z,11.43
2022-11-12T00:18:08.307Z,10.10
2022-11-12T00:20:35.564Z,5.10
2022-11-12T00:23:05.886Z,2.73
2022-11-12T00:25:33.015Z,3.47
2022-11-12T00:28:08.115Z,4.70
2022-11-12T00:30:37.802Z,11.13
2022-11-12T00:33:06.028Z,7.72
2022-11-12T00:35:34.110Z,2.93
2022-11-12T00:38:01.594Z,4.30
2022-11-12T00:40:29.308Z,1.50
2022-11-12T00:42:57.047Z,1.50
2022-11-12T00:45:24.518Z,1.87
2022-11-12T00:47:55.961Z,1.50
2022-11-12T00:50:23.499Z,1.40
2022-11-12T00:52:53.151Z,2.20
2022-11-12T00:55:20.544Z,2.27
2022-11-12T00:57:47.588Z,5.67
2022-11-12T01:00:17.284Z,9.18
2022-11-12T01:02:49.440Z,8.73
2022-11-12T01:05:20.069Z,5.20
2022-11-12T01:07:51.665Z,7.90
2022-11-12T01:10:21.990Z,1.47
2022-11-12T01:12:52.186Z,3.37
2022-11-12T01:15:19.332Z,3.67
2022-11-12T01:17:46.420Z,8.02
2022-11-12T01:20:13.528Z,9.98
2022-11-12T01:22:40.887Z,12.23
2022-11-12T01:25:08.513Z,10.32
2022-11-12T01:27:36.762Z,5.73
2022-11-12T01:30:05.624Z,5.20
2022-11-12T01:32:36.316Z,4.70
2022-11-12T01:35:03.750Z,2.80
2022-11-12T01:37:30.944Z,2.97
2022-11-12T01:39:58.148Z,1.73
2022-11-12T01:42:30.192Z,1.98
2022-11-12T01:44:57.571Z,3.30
2022-11-12T01:47:33.512Z,1.60
2022-11-12T01:50:26.159Z,1.95
2022-11-12T01:53:00.856Z,1.60
2022-11-12T01:55:31.637Z,1.20
2022-11-12T01:58:10.268Z,3.53
2022-11-12T02:00:37.705Z,11.73
2022-11-12T02:03:10.243Z,8.23
2022-11-12T02:05:37.990Z,11.25
2022-11-12T02:08:06.507Z,8.02
2022-11-12T02:10:35.489Z,4.55
2022-11-12T02:13:21.198Z,4.78
2022-11-12T02:15:48.364Z,4.80
2022-11-12T02:18:16.204Z,9.07
2022-11-12T02:20:43.489Z,10.35
2022-11-12T02:23:10.625Z,13.27
2022-11-12T02:25:37.753Z,10.55
2022-11-12T02:28:07.505Z,8.13
2022-11-12T02:30:41.634Z,10.00
2022-11-12T02:33:08.918Z,10.85
2022-11-12T02:35:36.106Z,4.45
2022-11-12T02:38:03.732Z,3.05
2022-11-12T02:40:30.964Z,2.47
2022-11-12T02:42:58.260Z,1.40
2022-11-12T02:45:25.507Z,1.60
2022-11-12T02:47:52.688Z,1.48
2022-11-12T02:50:25.644Z,2.65
2022-11-12T02:52:52.769Z,1.30
2022-11-12T02:55:19.983Z,2.47
2022-11-12T02:57:46.948Z,8.02
2022-11-12T03:00:14.294Z,9.00
2022-11-12T03:02:59.256Z,10.73
2022-11-12T03:05:31.273Z,2.28
2022-11-12T03:08:00.221Z,1.48
2022-11-12T03:10:28.838Z,1.40
2022-11-12T03:13:01.214Z,1.55
2022-11-12T03:15:29.799Z,1.48
2022-11-12T03:18:00.593Z,1.90
2022-11-12T03:20:28.374Z,1.23
2022-11-12T03:23:00.764Z,3.78
2022-11-12T03:25:29.498Z,1.30
2022-11-12T03:28:00.921Z,1.58
2022-11-12T03:30:29.635Z,1.38
2022-11-12T03:32:56.844Z,1.10
2022-11-12T03:35:24.182Z,1.42
2022-11-12T03:37:51.480Z,1.27
2022-11-12T03:40:19.118Z,3.90
2022-11-12T03:42:48.135Z,7.43
2022-11-12T03:45:16.097Z,8.68
2022-11-12T03:47:51.469Z,9.63
2022-11-12T03:50:19.746Z,5.20
2022-11-12T03:52:52.152Z,7.75
2022-11-12T03:55:21.107Z,4.05
2022-11-12T03:57:49.432Z,6.05
2022-11-12T04:00:17.276Z,8.32
2022-11-12T04:02:44.703Z,8.95
2022-11-12T04:05:30.504Z,9.13
2022-11-12T04:08:17.565Z,1.35
2022-11-12T04:10:44.833Z,7.95
2022-11-12T04:13:30.522Z,7.07
2022-11-12T04:16:30.877Z,1.42
2022-11-12T04:19:18.986Z,0.93
2022-11-12T04:21:51.598Z,7.18
2022-11-12T04:24:40.585Z,6.60
2022-11-12T04:27:10.217Z,9.90
2022-11-12T04:29:55.844Z,10.40
2022-11-12T04:32:23.084Z,1.50
2022-11-12T04:34:50.375Z,4.40
2022-11-12T04:37:22.396Z,5.82
2022-11-12T04:39:50.947Z,2.50
2022-11-12T04:42:36.702Z,5.55
2022-11-12T04:45:11.128Z,3.03
2022-11-12T04:47:40.389Z,9.43
2022-11-12T04:50:16.496Z,8.55
2022-11-12T04:52:43.725Z,8.40
2022-11-12T04:55:11.230Z,10.20
2022-11-12T04:57:39.201Z,8.85
2022-11-12T05:00:07.058Z,3.55
2022-11-12T05:02:34.076Z,7.65
2022-11-12T05:05:01.125Z,2.08
2022-11-12T05:07:32.262Z,2.92
2022-11-12T05:09:59.893Z,1.40
2022-11-12T05:12:27.079Z,1.38
2022-11-12T05:14:54.153Z,1.20
2022-11-12T05:17:21.326Z,1.60
2022-11-12T05:19:48.471Z,4.47
2022-11-12T05:22:40.456Z,7.93
2022-11-12T05:25:02.994Z,4.22
2022-11-12T05:27:30.545Z,3.63
2022-11-12T05:29:57.662Z,2.00
2022-11-12T05:32:25.166Z,1.15
2022-11-12T05:34:52.243Z,1.20
2022-11-12T05:37:19.817Z,4.05
2022-11-12T05:39:46.928Z,6.88
2022-11-12T05:42:14.546Z,10.68
2022-11-12T05:44:41.955Z,9.27
2022-11-12T05:47:08.961Z,9.52
2022-11-12T05:49:36.263Z,5.32
2022-11-12T05:52:03.365Z,2.55
2022-11-12T05:54:30.633Z,1.10
2022-11-12T05:56:57.911Z,1.52
2022-11-12T05:59:25.082Z,1.13
2022-11-12T06:01:52.691Z,1.40
2022-11-12T06:04:19.792Z,3.03
2022-11-12T06:06:46.984Z,7.07
2022-11-12T06:09:14.254Z,9.48
2022-11-12T06:11:41.501Z,8.27
2022-11-12T06:14:08.636Z,10.18
2022-11-12T06:16:35.741Z,4.78
2022-11-12T06:19:02.949Z,3.40
2022-11-12T06:21:30.267Z,1.52
2022-11-12T06:24:00.362Z,1.25
2022-11-12T06:26:29.528Z,1.67
2022-11-12T06:29:00.704Z,1.30
2022-11-12T06:31:27.912Z,1.10
2022-11-12T06:33:54.968Z,1.42
2022-11-12T06:36:22.207Z,1.40
2022-11-12T06:38:49.594Z,3.25
2022-11-12T06:41:16.761Z,7.03
2022-11-12T06:43:43.903Z,8.55
2022-11-12T06:46:15.770Z,9.68
2022-11-12T06:48:43.292Z,8.95
2022-11-12T06:51:16.386Z,8.18
2022-11-12T06:53:43.656Z,8.68
2022-11-12T06:56:12.888Z,8.95
2022-11-12T06:58:40.449Z,9.52
2022-11-12T07:01:12.044Z,8.07
2022-11-12T07:03:40.749Z,8.98
2022-11-12T07:06:13.790Z,9.45
2022-11-12T07:08:41.526Z,10.05
2022-11-12T07:11:08.723Z,10.88
2022-11-12T07:13:36.813Z,5.60
2022-11-12T07:16:05.737Z,2.55
2022-11-12T07:18:33.785Z,3.92
2022-11-12T07:21:07.210Z,4.03
2022-11-12T07:23:36.636Z,4.35
2022-11-12T07:26:06.575Z,2.55
2022-11-12T07:28:33.977Z,3.00
2022-11-12T07:31:03.847Z,1.83
2022-11-12T07:33:31.777Z,1.42
2022-11-12T07:36:06.833Z,1.30
2022-11-12T07:38:38.267Z,3.30
2022-11-12T07:41:16.557Z,5.47
2022-11-12T07:43:47.091Z,8.00
2022-11-12T07:46:22.451Z,7.07
2022-11-12T07:48:49.680Z,2.75
2022-11-12T07:51:18.867Z,7.22
2022-11-12T07:53:46.729Z,6.63
2022-11-12T07:56:17.288Z,7.82
2022-11-12T07:58:46.715Z,8.18
2022-11-12T08:01:34.996Z,8.07
2022-11-12T08:04:03.632Z,2.83
2022-11-12T08:06:32.009Z,1.30
2022-11-12T08:09:01.020Z,1.30
2022-11-12T08:11:28.535Z,1.02
2022-11-12T08:13:55.540Z,1.77
2022-11-12T08:16:22.642Z,1.13
2022-11-12T08:18:50.201Z,3.25
2022-11-12T08:21:18.542Z,6.95
2022-11-12T08:23:46.167Z,7.53
2022-11-12T08:26:17.838Z,6.68
2022-11-12T08:28:45.007Z,7.17
2022-11-12T08:31:19.683Z,8.33
2022-11-12T08:33:46.916Z,7.13
2022-11-12T08:36:18.910Z,6.88
2022-11-12T08:38:45.914Z,6.70
2022-11-12T08:41:14.308Z,6.57
2022-11-12T08:43:42.374Z,9.25
2022-11-12T08:46:09.435Z,7.72
2022-11-12T08:48:36.801Z,4.25
2022-11-12T08:51:07.220Z,2.43
2022-11-12T08:53:34.259Z,4.20
2022-11-12T08:56:01.394Z,1.60
2022-11-12T08:58:29.081Z,1.20
2022-11-12T09:00:57.233Z,1.23
2022-11-12T09:03:28.872Z,1.23
2022-11-12T09:05:55.894Z,1.30
2022-11-12T09:08:24.649Z,1.40
2022-11-12T09:10:52.441Z,1.20
2022-11-12T09:13:20.226Z,3.63
2022-11-12T09:15:49.336Z,6.60
2022-11-12T09:18:18.695Z,7.20
2022-11-12T09:20:46.360Z,8.63
2022-11-12T09:23:18.038Z,6.50
2022-11-12T09:25:45.513Z,7.03
2022-11-12T09:28:16.252Z,5.90
2022-11-12T09:30:57.295Z,6.40
2022-11-12T09:33:30.356Z,1.30
2022-11-12T09:36:01.385Z,1.20
2022-11-12T09:38:30.870Z,1.30
2022-11-12T09:41:22.807Z,1.50
2022-11-12T09:43:54.985Z,2.53
2022-11-12T09:46:27.768Z,1.20
2022-11-12T09:49:05.492Z,1.50
2022-11-12T09:51:44.265Z,3.73
2022-11-12T09:54:27.503Z,9.20
2022-11-12T09:56:55.076Z,1.53
2022-11-12T09:59:23.933Z,1.13
2022-11-12T10:01:54.401Z,2.20
2022-11-12T10:04:55.278Z,1.10
2022-11-12T10:07:38.612Z,1.40
2022-11-12T10:10:15.891Z,4.80
2022-11-12T10:13:15.188Z,8.07
2022-11-12T10:16:41.325Z,6.60
2022-11-12T10:19:41.211Z,8.13
2022-11-12T10:22:38.910Z,7.97
2022-11-12T10:25:19.924Z,4.37
2022-11-12T10:27:47.381Z,6.40
2022-11-12T10:30:17.539Z,5.73
2022-11-12T10:32:48.479Z,6.10
2022-11-12T10:35:18.738Z,6.53
2022-11-12T10:38:02.773Z,6.13
2022-11-12T10:40:36.895Z,4.83
2022-11-12T10:43:16.273Z,2.03
2022-11-12T10:45:44.724Z,6.30
2022-11-12T10:48:29.322Z,10.33
2022-11-12T10:50:56.856Z,1.87
2022-11-12T10:53:50.313Z,1.20
2022-11-12T10:56:31.842Z,7.07
2022-11-12T10:59:16.164Z,1.20
2022-11-12T11:01:46.057Z,6.13
2022-11-12T11:04:19.849Z,6.20
2022-11-12T11:06:47.071Z,5.63
2022-11-12T11:09:14.185Z,6.20
2022-11-12T11:11:54.403Z,8.10
2022-11-12T11:14:26.060Z,1.27
2022-11-12T11:16:55.905Z,1.40
2022-11-12T11:19:23.371Z,1.13
2022-11-12T11:21:50.741Z,1.93
2022-11-12T11:24:20.593Z,6.37
2022-11-12T11:26:56.029Z,6.10
2022-11-12T11:29:55.157Z,1.00
2022-11-12T11:32:22.507Z,4.40
2022-11-12T11:35:01.852Z,3.30
2022-11-12T11:37:31.400Z,1.20
2022-11-12T11:40:20.573Z,1.00
2022-11-12T11:43:09.012Z,5.80
2022-11-12T11:46:04.365Z,4.43
2022-11-12T11:48:59.558Z,1.57
2022-11-12T11:52:03.726Z,1.57
2022-11-12T11:54:54.258Z,4.70
2022-11-12T11:57:26.367Z,1.40
2022-11-12T12:00:12.103Z,0.90
2022-11-12T12:02:48.163Z,5.77
2022-11-12T12:05:35.867Z,5.53
2022-11-12T12:08:05.563Z,2.07
2022-11-12T12:11:21.713Z,2.87
2022-11-12T12:14:13.634Z,3.77
2022-11-12T12:17:03.028Z,6.80
2022-11-12T12:19:39.597Z,1.77
2022-11-12T12:22:13.995Z,3.37
2022-11-12T12:24:47.405Z,6.60
2022-11-12T12:27:22.422Z,5.13
2022-11-12T12:29:53.253Z,3.40
2022-11-12T12:32:44.974Z,2.20
2022-11-12T12:35:23.876Z,6.00
2022-11-12T12:38:06.425Z,2.50
2022-11-12T12:40:37.840Z,2.33
2022-11-12T12:43:27.712Z,4.17
2022-11-12T12:45:57.430Z,1.00
2022-11-12T12:48:35.419Z,1.10
2022-11-12T12:51:02.869Z,1.90
2022-11-12T12:53:32.863Z,2.17
2022-11-12T12:56:03.154Z,0.80
2022-11-12T12:58:47.352Z,1.17
2022-11-12T13:01:23.372Z,5.43
2022-11-12T13:04:04.765Z,1.77
2022-11-12T13:06:54.142Z,4.70
2022-11-12T13:09:26.268Z,1.70
2022-11-12T13:12:06.597Z,2.17
2022-11-12T13:14:36.571Z,2.10
2022-11-12T13:17:11.041Z,1.77
2022-11-12T13:19:57.653Z,5.93
2022-11-12T13:22:24.732Z,0.90
2022-11-12T13:25:26.948Z,0.90
2022-11-12T13:27:53.981Z,0.80
2022-11-12T13:30:27.423Z,2.00
2022-11-12T13:32:55.928Z,0.80
2022-11-12T13:35:31.280Z,0.97
2022-11-12T13:38:13.177Z,0.83
2022-11-12T13:40:46.745Z,6.00
2022-11-12T13:43:36.606Z,4.53
2022-11-12T13:46:26.784Z,1.67
2022-11-12T13:49:03.626Z,1.00
2022-11-12T13:51:46.731Z,0.90
2022-11-12T13:54:35.146Z,5.27
2022-11-12T13:57:28.011Z,3.70
2022-11-12T14:00:22.674Z,0.97
2022-11-12T14:03:02.368Z,4.70
2022-11-12T14:05:33.506Z,2.00
2022-11-12T14:08:15.960Z,0.97
2022-11-12T14:11:14.681Z,6.13
2022-11-12T14:13:53.470Z,8.17
2022-11-12T14:16:41.885Z,2.30
2022-11-12T14:19:30.625Z,5.67
2022-11-12T14:22:11.635Z,1.10
2022-11-12T14:24:38.983Z,6.40
2022-11-12T14:27:06.055Z,4.43
2022-11-12T14:29:36.038Z,2.77
2022-11-12T14:32:08.716Z,3.27
2022-11-12T14:34:35.806Z,4.97
2022-11-12T14:37:02.932Z,2.37
2022-11-12T14:39:30.594Z,1.33
2022-11-12T14:41:59.014Z,1.30
2022-11-12T14:44:35.017Z,1.20
2022-11-12T14:47:02.102Z,2.17
2022-11-12T14:49:43.847Z,2.50
2022-11-12T14:52:30.024Z,7.50
2022-11-12T14:55:07.713Z,2.20
2022-11-12T14:57:34.817Z,3.30
2022-11-12T15:00:18.966Z,1.97
2022-11-12T15:02:58.888Z,6.10
2022-11-12T15:05:29.489Z,1.23
2022-11-12T15:07:58.590Z,1.10
2022-11-12T15:10:32.834Z,1.00
2022-11-12T15:13:21.119Z,1.10
2022-11-12T15:15:53.057Z,5.43
2022-11-12T15:18:25.648Z,3.23
2022-11-12T15:21:13.626Z,1.00
2022-11-12T15:23:54.332Z,7.33
2022-11-12T15:26:37.047Z,1.93
2022-11-12T15:29:23.706Z,10.53
2022-11-12T15:31:53.160Z,2.50
2022-11-12T15:34:33.838Z,3.33
2022-11-12T15:37:07.544Z,1.50
2022-11-12T15:39:40.565Z,3.03
2022-11-12T15:42:16.326Z,4.40
2022-11-12T15:44:43.819Z,6.53
2022-11-12T15:47:19.466Z,7.33
2022-11-12T15:50:02.562Z,5.77
2022-11-12T15:52:29.808Z,2.23
2022-11-12T15:54:56.947Z,0.90
2022-11-12T15:57:29.508Z,1.50
2022-11-12T16:00:07.719Z,3.63
2022-11-12T16:02:35.888Z,6.27
2022-11-12T16:05:03.007Z,3.83
2022-11-12T16:07:30.529Z,1.60
2022-11-12T16:09:57.978Z,1.10
2022-11-12T16:12:25.102Z,1.13
2022-11-12T16:14:52.140Z,0.80
2022-11-12T16:17:19.827Z,4.53
2022-11-12T16:19:49.675Z,6.67
2022-11-12T16:22:16.842Z,6.23
2022-11-12T16:24:44.191Z,9.47
2022-11-12T16:27:15.086Z,7.70
2022-11-12T16:29:42.348Z,8.53
2022-11-12T16:32:16.861Z,6.30
2022-11-12T16:34:44.070Z,8.57
2022-11-12T16:37:13.103Z,7.27
2022-11-12T16:39:40.332Z,11.27
2022-11-12T16:42:10.600Z,3.07
2022-11-12T16:44:38.010Z,4.20
2022-11-12T16:47:06.186Z,4.50
2022-11-12T16:49:38.431Z,3.23
2022-11-12T16:52:06.132Z,6.90
2022-11-12T16:54:33.175Z,3.37
2022-11-12T16:57:00.453Z,5.97
2022-11-12T16:59:27.609Z,1.20
2022-11-12T17:01:54.725Z,1.40
2022-11-12T17:04:25.039Z,2.00
2022-11-12T17:06:52.291Z,1.00
2022-11-12T17:09:19.425Z,6.70
2022-11-12T17:11:47.484Z,7.00
2022-11-12T17:14:14.790Z,8.40
2022-11-12T17:16:42.127Z,10.10
2022-11-12T17:19:10.636Z,8.97
2022-11-12T17:21:37.824Z,6.93
2022-11-12T17:24:05.306Z,3.37
2022-11-12T17:26:32.430Z,4.47
2022-11-12T17:29:04.926Z,1.50
2022-11-12T17:31:35.851Z,3.80
2022-11-12T17:34:05.511Z,5.17
2022-11-12T17:36:32.843Z,5.47
2022-11-12T17:39:00.965Z,1.00
2022-11-12T17:41:29.112Z,2.40
2022-11-12T17:44:00.583Z,1.60
2022-11-12T17:46:29.576Z,4.77
2022-11-12T17:48:56.924Z,1.97
2022-11-12T17:51:26.514Z,1.70
2022-11-12T17:53:53.797Z,1.70
2022-11-12T17:56:23.149Z,3.10
2022-11-12T17:58:51.498Z,3.70
2022-11-12T18:01:23.598Z,6.50
2022-11-12T18:03:53.086Z,3.53
2022-11-12T18:06:23.053Z,3.83
2022-11-12T18:09:14.776Z,4.13
2022-11-12T18:11:50.411Z,14.57
2022-11-12T18:14:18.035Z,6.90
2022-11-12T18:16:46.231Z,8.73
2022-11-12T18:19:13.572Z,9.23
2022-11-12T18:21:41.361Z,9.37
2022-11-12T18:24:14.055Z,8.27
2022-11-12T18:26:41.286Z,14.20
2022-11-12T18:29:08.530Z,8.80
2022-11-12T18:31:35.809Z,6.77
2022-11-12T18:34:02.965Z,4.73
2022-11-12T18:36:30.608Z,1.40
2022-11-12T18:38:58.046Z,1.10
2022-11-12T18:41:27.034Z,1.40
2022-11-12T18:43:55.075Z,1.00
2022-11-12T18:46:22.831Z,2.40
2022-11-12T18:48:50.571Z,4.37
2022-11-12T18:51:18.903Z,7.70
2022-11-12T18:53:46.562Z,8.33
2022-11-12T18:56:18.976Z,7.53
2022-11-12T18:58:46.736Z,7.33
2022-11-12T19:01:21.056Z,9.23
2022-11-12T19:03:48.743Z,6.57
2022-11-12T19:06:16.840Z,8.93
2022-11-12T19:08:44.117Z,10.33
2022-11-12T19:11:12.874Z,10.17
2022-11-12T19:13:40.322Z,10.63
2022-11-12T19:16:12.017Z,4.47
2022-11-12T19:18:40.482Z,10.23
2022-11-12T19:21:10.252Z,3.97
2022-11-12T19:23:41.433Z,5.30
2022-11-12T19:26:10.919Z,8.83
2022-11-12T19:28:37.956Z,5.63
2022-11-12T19:31:21.700Z,3.53
2022-11-12T19:33:49.401Z,6.57
2022-11-12T19:36:22.350Z,8.43
2022-11-12T19:38:57.752Z,6.53
2022-11-12T19:41:25.655Z,1.80
2022-11-12T19:43:53.105Z,1.23
2022-11-12T19:46:24.057Z,3.87
2022-11-12T19:48:52.130Z,2.60
2022-11-12T19:51:19.213Z,6.27
2022-11-12T19:53:46.304Z,9.03
2022-11-12T19:56:17.359Z,9.70
2022-11-12T19:58:48.534Z,10.20
2022-11-12T20:01:18.095Z,8.73
2022-11-12T20:03:45.321Z,7.67
2022-11-12T20:06:15.509Z,10.52
2022-11-12T20:08:46.158Z,8.98
2022-11-12T20:11:14.062Z,9.25
2022-11-12T20:13:41.291Z,9.95
2022-11-12T20:16:09.935Z,5.53
2022-11-12T20:18:37.277Z,5.65
2022-11-12T20:21:05.089Z,2.50
2022-11-12T20:23:33.868Z,3.33
2022-11-12T20:26:12.510Z,1.30
2022-11-12T20:28:41.121Z,9.15
2022-11-12T20:31:17.361Z,14.95
2022-11-12T20:33:44.366Z,7.43
2022-11-12T20:36:16.296Z,10.25
2022-11-12T20:38:44.460Z,9.82
2022-11-12T20:41:17.084Z,9.48
2022-11-12T20:43:44.393Z,10.02
2022-11-12T20:46:12.324Z,10.05
2022-11-12T20:48:43.127Z,9.75
2022-11-12T20:51:24.245Z,11.73
2022-11-12T20:53:58.756Z,2.03
2022-11-12T20:56:28.266Z,2.08
2022-11-12T20:58:55.883Z,1.75
2022-11-12T21:01:24.910Z,2.15
2022-11-12T21:03:52.696Z,2.00
2022-11-12T21:06:24.725Z,6.38
2022-11-12T21:08:51.817Z,2.38
2022-11-12T21:11:21.098Z,7.43
2022-11-12T21:13:48.305Z,8.02
2022-11-12T21:16:16.019Z,12.60
2022-11-12T21:18:44.259Z,9.85
2022-11-12T21:21:21.577Z,11.85
2022-11-12T21:23:51.465Z,7.05
2022-11-12T21:26:22.912Z,6.70
2022-11-12T21:28:51.674Z,4.50
2022-11-12T21:31:20.908Z,7.25
2022-11-12T21:33:58.988Z,7.82
2022-11-12T21:36:28.331Z,3.65
2022-11-12T21:38:55.506Z,2.22
2022-11-12T21:41:27.667Z,1.63
2022-11-12T21:43:58.785Z,1.70
2022-11-12T21:46:30.430Z,1.50
2022-11-12T21:48:58.204Z,1.60
2022-11-12T21:51:27.119Z,1.30
2022-11-12T21:53:56.364Z,1.15
2022-11-12T21:56:23.787Z,4.63
2022-11-12T21:58:51.066Z,3.92
2022-11-12T22:01:30.976Z,7.68
2022-11-12T22:04:00.478Z,1.40
2022-11-12T22:06:29.692Z,2.47
2022-11-12T22:08:58.161Z,2.00
2022-11-12T22:11:27.959Z,1.55
2022-11-12T22:13:55.350Z,2.55
2022-11-12T22:16:24.576Z,1.60
2022-11-12T22:18:53.735Z,2.72
2022-11-12T22:21:27.490Z,3.60
2022-11-12T22:23:56.085Z,1.30
2022-11-12T22:26:25.758Z,2.00
2022-11-12T22:28:57.446Z,2.13
2022-11-12T22:31:30.028Z,2.67
2022-11-12T22:33:59.135Z,4.72
2022-11-12T22:36:31.660Z,1.67
2022-11-12T22:39:02.404Z,1.50
2022-11-12T22:41:31.426Z,3.55
2022-11-12T22:44:00.622Z,0.88
2022-11-12T22:46:36.277Z,1.80
2022-11-12T22:49:04.459Z,3.63
2022-11-12T22:51:33.602Z,2.10
2022-11-12T22:54:03.488Z,1.20
2022-11-12T22:56:33.423Z,3.23
2022-11-12T22:59:03.710Z,1.70
2022-11-12T23:01:36.548Z,3.75
2022-11-12T23:04:06.286Z,3.22
2022-11-12T23:06:33.466Z,8.15
2022-11-12T23:09:01.538Z,2.05
2022-11-12T23:11:29.195Z,1.67
2022-11-12T23:13:56.647Z,1.85
2022-11-12T23:16:26.706Z,1.17
2022-11-12T23:18:55.072Z,1.40
2022-11-12T23:21:26.464Z,2.55
2022-11-12T23:23:54.178Z,1.65
2022-11-12T23:26:23.918Z,3.05
2022-11-12T23:28:51.700Z,3.60
2022-11-12T23:31:21.323Z,8.02
2022-11-12T23:33:53.429Z,7.55
2022-11-12T23:36:22.172Z,6.30
2022-11-12T23:38:49.314Z,6.45
2022-11-12T23:41:18.667Z,7.28
2022-11-12T23:43:49.343Z,7.95
2022-11-12T23:46:16.696Z,8.38
2022-11-12T23:48:43.900Z,7.43
2022-11-12T23:51:16.946Z,9.83
2022-11-12T23:53:44.318Z,9.25
2022-11-12T23:56:13.727Z,10.30
2022-11-12T23:58:41.863Z,9.35
